Time;durP1;ratioP1;P1;durP2;ratioP2;P2;SDS_P1;SDS_P2;PMS_P1;PMS_P2;Temp;Humidity;BMP_temperature;BMP_pressure;BME280_temperature;BME280_humidity;BME280_pressure;Samples;Min_cycle;Max_cycle;Signal;HPM_P1;HPM_P2
2024/01/04 00:02:04;;;;;;;0.70;0.70;;;;;;;11.34;95.94;98674.38;4954356;28;20118;-70
2024/01/04 00:04:29;;;;;;;0.70;0.70;;;;;;;11.31;96.78;98629.31;4936798;29;20106;-72
2024/01/04 00:06:56;;;;;;;0.70;0.70;;;;;;;11.34;96.92;98645.97;4945620;28;20478;-70
2024/01/04 00:09:21;;;;;;;0.80;0.80;;;;;;;11.42;96.61;98672.13;4970499;28;20499;-70
2024/01/04 00:11:47;;;;;;;0.70;0.70;;;;;;;11.26;96.73;98653.53;4950901;28;20042;-70
2024/01/04 00:14:13;;;;;;;0.70;0.70;;;;;;;11.31;98.18;98687.84;4950671;28;20078;-70
2024/01/04 00:16:38;;;;;;;0.70;0.70;;;;;;;11.22;98.52;98672.44;4930850;29;20032;-71
2024/01/04 00:19:04;;;;;;;0.70;0.70;;;;;;;11.24;99.44;98681.16;4939850;28;20507;-71
2024/01/04 00:21:29;;;;;;;0.73;0.73;;;;;;;11.23;99.35;98680.31;4947957;29;20035;-70
2024/01/04 00:23:55;;;;;;;0.70;0.70;;;;;;;11.24;100.00;98690.00;4931457;28;20031;-69
2024/01/04 00:26:20;;;;;;;0.70;0.70;;;;;;;11.16;100.00;98686.06;4946005;29;20031;-70
2024/01/04 00:28:46;;;;;;;0.80;0.80;;;;;;;11.14;100.00;98694.13;4951707;28;20460;-68
2024/01/04 00:31:11;;;;;;;0.80;0.80;;;;;;;11.16;99.38;98684.25;4950045;28;20511;-68
2024/01/04 00:33:36;;;;;;;0.70;0.70;;;;;;;11.18;99.02;98686.84;4955362;28;20015;-69
2024/01/04 00:36:02;;;;;;;0.80;0.80;;;;;;;11.23;97.74;98703.41;4956250;28;20034;-68
2024/01/04 00:38:27;;;;;;;0.80;0.80;;;;;;;11.22;98.38;98707.03;4948893;29;20063;-68
2024/01/04 00:40:53;;;;;;;0.70;0.70;;;;;;;11.15;97.53;98681.69;4948527;29;20054;-68
2024/01/04 00:43:18;;;;;;;0.65;0.65;;;;;;;11.30;98.92;98715.44;4933767;29;20115;-69
2024/01/04 00:45:43;;;;;;;0.70;0.70;;;;;;;11.29;97.79;98716.38;4966381;28;20172;-63
2024/01/04 00:48:09;;;;;;;0.70;0.70;;;;;;;11.27;97.85;98726.22;4954660;28;20036;-62
2024/01/04 00:50:34;;;;;;;0.70;0.70;;;;;;;11.26;97.07;98721.88;4931076;29;20497;-63
2024/01/04 00:53:01;;;;;;;0.60;0.60;;;;;;;11.30;96.58;98731.41;4931420;29;20122;-63
2024/01/04 00:55:27;;;;;;;0.60;0.60;;;;;;;11.33;96.46;98731.22;4933098;29;20048;-63
2024/01/04 00:57:52;;;;;;;0.60;0.60;;;;;;;11.34;97.40;98740.91;4931616;29;20111;-63
2024/01/04 01:00:18;;;;;;;0.70;0.70;;;;;;;11.25;97.85;98758.25;4933156;29;20031;-63
2024/01/04 01:02:43;;;;;;;0.70;0.70;;;;;;;10.98;99.31;98780.19;4949190;28;20073;-62
2024/01/04 01:05:09;;;;;;;0.70;0.70;;;;;;;10.74;100.00;98760.25;4962067;28;20035;-62
2024/01/04 01:07:34;;;;;;;0.70;0.70;;;;;;;10.05;100.00;98701.81;4934195;28;20432;-63
2024/01/04 01:09:59;;;;;;;0.80;0.80;;;;;;;10.28;100.00;98744.03;4914536;28;20031;-63
2024/01/04 01:12:25;;;;;;;0.70;0.70;;;;;;;10.15;100.00;98721.69;4944706;29;20072;-62
2024/01/04 01:14:50;;;;;;;0.68;0.68;;;;;;;10.10;100.00;98741.44;4950122;29;20578;-62
2024/01/04 01:17:16;;;;;;;0.70;0.70;;;;;;;10.03;100.00;98751.50;4948893;29;20035;-62
2024/01/04 01:19:41;;;;;;;0.80;0.80;;;;;;;10.05;100.00;98754.09;4947301;29;20487;-62
2024/01/04 01:22:07;;;;;;;0.70;0.70;;;;;;;9.93;100.00;98755.56;4949728;29;20027;-63
2024/01/04 01:24:32;;;;;;;0.73;0.73;;;;;;;9.88;100.00;98762.91;4941494;29;20491;-63
2024/01/04 01:26:57;;;;;;;0.70;0.70;;;;;;;9.70;100.00;98745.22;4948823;28;20023;-63
2024/01/04 01:29:23;;;;;;;0.68;0.68;;;;;;;9.92;100.00;98777.75;4948239;28;20637;-63
2024/01/04 01:31:48;;;;;;;0.70;0.70;;;;;;;9.86;100.00;98795.78;4947269;29;20074;-63
2024/01/04 01:34:14;;;;;;;0.70;0.70;;;;;;;9.84;100.00;98797.63;4944082;29;20042;-62
2024/01/04 01:36:42;;;;;;;0.77;0.77;;;;;;;9.91;100.00;98804.38;4929215;29;20032;-62
2024/01/04 01:39:11;;;;;;;0.70;0.70;;;;;;;10.01;100.00;98821.59;4929483;29;20027;-62
2024/01/04 01:41:36;;;;;;;0.70;0.70;;;;;;;9.97;100.00;98804.94;4930859;29;20036;-63
2024/01/04 01:44:02;;;;;;;0.80;0.80;;;;;;;9.99;100.00;98824.31;4932868;29;20027;-63
2024/01/04 01:46:27;;;;;;;0.70;0.70;;;;;;;10.04;100.00;98822.28;4930792;29;20035;-63
2024/01/04 01:48:53;;;;;;;0.80;0.80;;;;;;;10.03;99.92;98803.78;4929877;29;20047;-63
2024/01/04 01:51:18;;;;;;;0.80;0.80;;;;;;;10.12;98.65;98816.63;4929554;29;20027;-63
2024/01/04 01:53:44;;;;;;;0.70;0.70;;;;;;;10.15;99.97;98825.31;4931438;29;20038;-62
2024/01/04 01:56:10;;;;;;;0.80;0.80;;;;;;;10.11;99.01;98826.41;4939471;29;20059;-62
2024/01/04 01:58:36;;;;;;;0.70;0.70;;;;;;;10.11;100.00;98831.72;4948594;29;20036;-63
2024/01/04 02:01:02;;;;;;;0.80;0.80;;;;;;;10.14;100.00;98830.69;4960471;28;20030;-68
2024/01/04 02:03:28;;;;;;;0.80;0.80;;;;;;;10.18;100.00;98841.09;4973847;28;20558;-68
2024/01/04 02:05:53;;;;;;;0.80;0.80;;;;;;;10.18;100.00;98845.56;4968857;28;20034;-68
2024/01/04 02:08:19;;;;;;;0.70;0.70;;;;;;;10.12;100.00;98841.41;4970819;28;20119;-69
2024/01/04 02:10:44;;;;;;;0.80;0.80;;;;;;;10.16;100.00;98847.44;4974025;28;20239;-68
2024/01/04 02:13:10;;;;;;;0.80;0.80;;;;;;;10.15;100.00;98841.25;4966115;28;20033;-68
2024/01/04 02:15:36;;;;;;;0.80;0.80;;;;;;;10.21;100.00;98842.75;4953308;29;20034;-68
2024/01/04 02:18:01;;;;;;;0.70;0.70;;;;;;;10.23;100.00;98852.34;4952719;29;20399;-68
2024/01/04 02:20:26;;;;;;;0.80;0.80;;;;;;;10.20;100.00;98855.16;4952787;29;20031;-68
2024/01/04 02:22:53;;;;;;;0.70;0.70;;;;;;;10.18;100.00;98851.72;4954257;28;20055;-68
2024/01/04 02:25:19;;;;;;;0.80;0.80;;;;;;;10.16;100.00;98850.97;4958093;28;20043;-68
2024/01/04 02:27:44;;;;;;;0.80;0.80;;;;;;;10.18;100.00;98846.41;4957384;28;20030;-68
2024/01/04 02:30:12;;;;;;;0.80;0.80;;;;;;;10.19;100.00;98850.81;4969301;28;20035;-68
2024/01/04 02:32:38;;;;;;;0.70;0.70;;;;;;;10.27;100.00;98856.59;4971471;28;20412;-69
2024/01/04 02:35:04;;;;;;;0.80;0.80;;;;;;;10.39;100.00;98866.59;4968678;28;20038;-68
2024/01/04 02:37:30;;;;;;;0.70;0.70;;;;;;;10.21;99.83;98829.47;4965656;28;20035;-69
2024/01/04 02:39:55;;;;;;;0.80;0.80;;;;;;;10.46;100.00;98864.50;4951341;29;20054;-69
2024/01/04 02:42:20;;;;;;;0.80;0.80;;;;;;;10.52;99.93;98867.72;4966342;28;20037;-69
2024/01/04 02:44:46;;;;;;;0.68;0.68;;;;;;;10.56;100.00;98868.41;4973941;28;20390;-68
2024/01/04 02:47:12;;;;;;;0.80;0.80;;;;;;;10.50;100.00;98853.63;4967223;28;20141;-68
2024/01/04 02:49:38;;;;;;;0.70;0.70;;;;;;;10.55;100.00;98870.22;4970293;28;20031;-67
2024/01/04 02:52:04;;;;;;;0.70;0.70;;;;;;;10.59;98.94;98873.59;4948014;29;20038;-69
2024/01/04 02:54:29;;;;;;;0.70;0.70;;;;;;;10.61;99.34;98883.19;4937809;28;20027;-68
2024/01/04 02:56:55;;;;;;;0.70;0.70;;;;;;;10.65;99.56;98883.91;4986675;28;20514;-68
2024/01/04 02:59:20;;;;;;;0.70;0.70;;;;;;;10.62;99.83;98884.06;4951853;28;20026;-68
2024/01/04 03:01:48;;;;;;;0.70;0.70;;;;;;;10.20;100.00;98811.78;4970900;28;20034;-68
2024/01/04 03:04:16;;;;;;;0.60;0.60;;;;;;;10.60;100.00;98897.44;4955031;28;20042;-67
2024/01/04 03:06:42;;;;;;;0.70;0.70;;;;;;;10.22;99.61;98821.41;4952363;29;20039;-68
2024/01/04 03:09:08;;;;;;;0.70;0.70;;;;;;;10.66;99.57;98900.72;4962701;28;20031;-69
2024/01/04 03:11:33;;;;;;;0.80;0.80;;;;;;;10.67;98.89;98907.75;4960133;28;20128;-69
2024/01/04 03:13:59;;;;;;;0.80;0.80;;;;;;;10.66;98.26;98896.25;4971050;28;20129;-64
2024/01/04 03:16:24;;;;;;;0.80;0.80;;;;;;;10.70;98.78;98896.97;4969158;28;20033;-64
2024/01/04 03:18:50;;;;;;;0.70;0.70;;;;;;;10.74;97.82;98904.69;4969727;28;20115;-64
2024/01/04 03:21:16;;;;;;;0.70;0.70;;;;;;;10.39;98.38;98840.00;4970545;28;20045;-64
2024/01/04 03:23:42;;;;;;;0.80;0.80;;;;;;;10.78;98.64;98894.75;4967958;28;20134;-64
2024/01/04 03:26:08;;;;;;;0.70;0.70;;;;;;;10.79;97.96;98901.81;4950737;28;20547;-64
2024/01/04 03:28:33;;;;;;;0.73;0.73;;;;;;;10.76;97.87;98902.00;4950955;29;20082;-65
2024/01/04 03:30:59;;;;;;;0.70;0.70;;;;;;;10.73;99.07;98904.78;4951117;29;20479;-64
2024/01/04 03:33:24;;;;;;;0.80;0.80;;;;;;;10.51;98.55;98876.63;4955655;28;20031;-64
2024/01/04 03:35:49;;;;;;;0.70;0.70;;;;;;;10.74;98.46;98909.19;4962789;28;20034;-64
2024/01/04 03:38:15;;;;;;;0.70;0.70;;;;;;;10.80;98.19;98908.84;4971201;28;20038;-64
2024/01/04 03:40:40;;;;;;;0.70;0.70;;;;;;;10.79;97.84;98907.16;4971172;28;20510;-65
2024/01/04 03:43:06;;;;;;;0.80;0.80;;;;;;;10.79;96.30;98907.16;4970725;28;20054;-64
2024/01/04 03:45:34;;;;;;;0.70;0.70;;;;;;;10.73;97.07;98896.78;4954475;28;20027;-65
2024/01/04 03:48:00;;;;;;;0.70;0.70;;;;;;;10.83;96.85;98914.88;4951827;29;20078;-64
2024/01/04 03:50:25;;;;;;;0.70;0.70;;;;;;;10.86;96.68;98913.84;4951602;29;20031;-64
2024/01/04 03:52:51;;;;;;;0.80;0.80;;;;;;;10.88;95.97;98922.63;4953855;28;20121;-64
2024/01/04 03:55:16;;;;;;;0.60;0.60;;;;;;;10.92;94.53;98916.22;4951384;29;20047;-64
2024/01/04 03:57:46;;;;;;;0.70;0.70;;;;;;;10.83;93.13;98914.00;4951756;29;20041;-64
2024/01/04 04:00:12;;;;;;;0.70;0.70;;;;;;;11.07;93.20;98924.25;4964687;28;20034;-64
2024/01/04 04:02:38;;;;;;;0.70;0.70;;;;;;;11.06;92.45;98934.97;4970915;28;20150;-64
2024/01/04 04:05:04;;;;;;;0.70;0.70;;;;;;;11.15;91.60;98937.19;4973797;28;20026;-64
2024/01/04 04:07:30;;;;;;;0.60;0.60;;;;;;;11.17;91.15;98935.31;4969467;28;20390;-65
2024/01/04 04:09:56;;;;;;;0.73;0.73;;;;;;;10.98;91.16;98907.91;4952054;28;20032;-64
2024/01/04 04:12:22;;;;;;;0.60;0.60;;;;;;;11.17;90.83;98938.81;4986048;28;20030;-64
2024/01/04 04:14:48;;;;;;;0.60;0.60;;;;;;;10.84;89.68;98884.66;4970495;28;20031;-65
2024/01/04 04:17:15;;;;;;;0.70;0.70;;;;;;;11.24;89.70;98947.31;4972771;28;20497;-64
2024/01/04 04:19:40;;;;;;;0.70;0.70;;;;;;;11.21;89.26;98953.69;4979872;28;20030;-64
2024/01/04 04:22:05;;;;;;;0.70;0.70;;;;;;;11.28;89.44;98948.91;4968738;28;20030;-64
2024/01/04 04:24:31;;;;;;;0.70;0.70;;;;;;;11.31;89.73;98960.25;4970650;28;20519;-67
2024/01/04 04:26:56;;;;;;;0.70;0.70;;;;;;;11.30;89.44;98952.34;4968744;28;20038;-68
2024/01/04 04:29:22;;;;;;;0.70;0.70;;;;;;;11.29;89.09;98959.47;4970330;28;20027;-68
2024/01/04 04:31:48;;;;;;;0.70;0.70;;;;;;;11.29;89.74;98966.59;4965394;28;20031;-69
2024/01/04 04:34:13;;;;;;;0.70;0.70;;;;;;;11.22;89.94;98959.88;4970078;28;20054;-69
2024/01/04 04:36:40;;;;;;;0.70;0.70;;;;;;;11.26;89.70;98972.94;4969736;28;20110;-69
2024/01/04 04:39:07;;;;;;;0.70;0.70;;;;;;;11.23;89.76;98972.22;4963888;28;20030;-70
2024/01/04 04:41:32;;;;;;;0.80;0.80;;;;;;;11.16;89.10;98968.16;4952355;28;20778;-70
2024/01/04 04:43:58;;;;;;;0.70;0.70;;;;;;;11.19;90.00;98975.97;4953019;28;20031;-69
2024/01/04 04:46:24;;;;;;;0.80;0.80;;;;;;;11.21;88.37;98979.44;4976260;28;20076;-69
2024/01/04 04:48:54;;;;;;;0.80;0.80;;;;;;;11.20;89.22;98978.56;4949924;28;20026;-70
2024/01/04 04:51:22;;;;;;;0.80;0.80;;;;;;;11.16;88.15;98981.47;4969810;28;20038;-68
2024/01/04 04:53:47;;;;;;;0.70;0.70;;;;;;;11.15;88.53;98982.41;4970209;28;20582;-68
2024/01/04 04:56:13;;;;;;;0.70;0.70;;;;;;;10.92;88.42;98956.13;4955585;28;20536;-68
2024/01/04 04:58:39;;;;;;;0.70;0.70;;;;;;;11.07;88.36;98981.97;4950730;29;20045;-68
2024/01/04 05:01:05;;;;;;;0.70;0.70;;;;;;;11.06;87.06;98990.84;4950280;29;20078;-68
2024/01/04 05:03:31;;;;;;;0.80;0.80;;;;;;;11.12;87.36;99002.06;4960047;28;20031;-68
2024/01/04 05:05:56;;;;;;;0.70;0.70;;;;;;;11.15;88.14;99006.38;4940145;29;20031;-68
2024/01/04 05:08:22;;;;;;;0.70;0.70;;;;;;;11.08;87.92;98997.84;4964245;28;20478;-69
2024/01/04 05:10:48;;;;;;;0.70;0.70;;;;;;;11.10;88.26;99011.94;4967857;28;20505;-69
2024/01/04 05:13:13;;;;;;;0.60;0.60;;;;;;;11.10;88.70;99024.38;4950909;28;20086;-68
2024/01/04 05:15:39;;;;;;;0.70;0.70;;;;;;;10.85;88.49;98995.47;4957942;28;20023;-69
2024/01/04 05:18:04;;;;;;;0.60;0.60;;;;;;;11.08;89.19;99029.78;4950624;28;20027;-69
2024/01/04 05:20:30;;;;;;;0.70;0.70;;;;;;;11.05;88.07;99021.06;4965207;28;20042;-69
2024/01/04 05:22:57;;;;;;;0.70;0.70;;;;;;;11.12;87.62;99031.31;4950336;28;20023;-70
2024/01/04 05:25:22;;;;;;;0.70;0.70;;;;;;;11.13;88.16;99019.75;4950238;29;20031;-69
2024/01/04 05:27:48;;;;;;;0.70;0.70;;;;;;;11.07;88.09;99022.72;4952214;28;20076;-69
2024/01/04 05:30:13;;;;;;;0.68;0.68;;;;;;;11.10;87.43;99037.69;4950188;29;20026;-69
2024/01/04 05:32:39;;;;;;;0.70;0.70;;;;;;;11.09;87.17;99030.63;4950095;29;20027;-69
2024/01/04 05:35:05;;;;;;;0.70;0.70;;;;;;;11.13;87.43;99034.84;4932104;29;20652;-70
2024/01/04 05:37:30;;;;;;;0.70;0.70;;;;;;;11.10;88.21;99048.31;4951795;28;20518;-70
2024/01/04 05:39:55;;;;;;;0.77;0.77;;;;;;;11.11;87.05;99047.38;4966925;28;20030;-69
2024/01/04 05:42:21;;;;;;;0.70;0.70;;;;;;;11.10;87.47;99056.31;4967124;28;20037;-69
2024/01/04 05:44:46;;;;;;;0.77;0.77;;;;;;;10.76;87.15;98989.75;4973429;28;20034;-70
2024/01/04 05:47:12;;;;;;;0.70;0.70;;;;;;;11.17;86.96;99063.91;4965967;28;20067;-70
2024/01/04 05:49:37;;;;;;;0.80;0.80;;;;;;;11.14;87.50;99076.50;4953702;29;20027;-69
2024/01/04 05:52:03;;;;;;;0.70;0.70;;;;;;;11.17;86.81;99079.03;4955200;28;20116;-69
2024/01/04 05:54:29;;;;;;;0.70;0.70;;;;;;;11.16;87.22;99075.50;4957012;28;20023;-69
2024/01/04 05:56:54;;;;;;;0.70;0.70;;;;;;;11.18;87.36;99083.41;4937196;29;20099;-69
2024/01/04 05:59:24;;;;;;;0.80;0.80;;;;;;;11.23;86.41;99078.72;4937009;29;20111;-68
2024/01/04 06:01:50;;;;;;;0.60;0.60;;;;;;;11.22;85.99;99082.31;4942147;29;20125;-69
2024/01/04 06:04:15;;;;;;;0.63;0.63;;;;;;;11.26;86.76;99083.88;4935970;29;20074;-69
2024/01/04 06:06:40;;;;;;;0.60;0.60;;;;;;;11.23;86.08;99084.91;4932431;29;20031;-69
2024/01/04 06:09:06;;;;;;;0.70;0.70;;;;;;;11.20;85.77;99089.50;4946910;28;20110;-70
2024/01/04 06:11:32;;;;;;;0.70;0.70;;;;;;;11.16;85.02;99079.94;4967516;28;20066;-69
2024/01/04 06:13:57;;;;;;;0.70;0.70;;;;;;;11.03;85.94;99044.22;4953049;28;20483;-71
2024/01/04 06:16:22;;;;;;;0.70;0.70;;;;;;;11.26;86.11;99094.53;4952796;28;20686;-68
2024/01/04 06:18:48;;;;;;;0.60;0.60;;;;;;;11.24;86.13;99099.06;4971353;28;20039;-69
2024/01/04 06:21:13;;;;;;;0.70;0.70;;;;;;;11.23;85.78;99108.00;4957418;28;20024;-69
2024/01/04 06:23:39;;;;;;;0.70;0.70;;;;;;;11.19;85.83;99112.59;4934671;29;20030;-69
2024/01/04 06:26:04;;;;;;;0.70;0.70;;;;;;;11.26;86.62;99113.16;4933977;29;20119;-69
2024/01/04 06:28:29;;;;;;;0.70;0.70;;;;;;;11.24;85.93;99129.19;4946110;28;20497;-68
2024/01/04 06:30:55;;;;;;;0.70;0.70;;;;;;;11.25;86.53;99136.25;4937214;29;20034;-69
2024/01/04 06:33:20;;;;;;;0.70;0.70;;;;;;;11.21;85.71;99133.81;4934249;29;20031;-70
2024/01/04 06:35:46;;;;;;;0.80;0.80;;;;;;;11.06;84.50;99107.94;4959615;28;20395;-69
2024/01/04 06:38:11;;;;;;;0.70;0.70;;;;;;;11.29;83.02;99150.25;4922119;29;20027;-69
2024/01/04 06:40:37;;;;;;;0.70;0.70;;;;;;;11.18;83.18;99118.00;4944407;29;20024;-69
2024/01/04 06:43:08;;;;;;;0.70;0.70;;;;;;;11.07;82.14;99112.34;4930811;29;20039;-69
2024/01/04 06:45:36;;;;;;;0.63;0.63;;;;;;;11.39;82.09;99147.09;4944449;29;20404;-68
2024/01/04 06:48:03;;;;;;;0.70;0.70;;;;;;;11.33;82.82;99166.03;4941804;29;20033;-68
2024/01/04 06:50:29;;;;;;;0.70;0.70;;;;;;;11.36;82.81;99170.34;4932932;29;20035;-69
2024/01/04 06:52:55;;;;;;;0.70;0.70;;;;;;;11.24;81.88;99161.16;4938566;28;20054;-69
2024/01/04 06:55:21;;;;;;;0.70;0.70;;;;;;;11.33;81.42;99174.03;4944081;28;20125;-69
2024/01/04 06:57:46;;;;;;;0.68;0.68;;;;;;;11.22;80.20;99178.16;4948134;29;20035;-69
2024/01/04 07:00:12;;;;;;;0.80;0.80;;;;;;;11.21;79.77;99177.28;4948979;29;20027;-69
2024/01/04 07:02:38;;;;;;;0.70;0.70;;;;;;;11.13;80.16;99178.56;4933602;29;20042;-69
2024/01/04 07:05:05;;;;;;;0.70;0.70;;;;;;;11.19;78.86;99181.81;4948654;28;20035;-67
2024/01/04 07:07:34;;;;;;;0.77;0.77;;;;;;;11.16;78.59;99195.25;4931654;29;20042;-66
2024/01/04 07:10:00;;;;;;;0.60;0.60;;;;;;;11.13;78.67;99206.06;4950663;29;20109;-67
2024/01/04 07:12:26;;;;;;;0.70;0.70;;;;;;;11.10;77.67;99205.34;4944831;28;20031;-68
2024/01/04 07:14:53;;;;;;;0.70;0.70;;;;;;;11.11;78.67;99225.69;4945710;29;20053;-67
2024/01/04 07:17:18;;;;;;;0.70;0.70;;;;;;;10.89;79.11;99195.72;4950202;29;20121;-68
2024/01/04 07:19:44;;;;;;;0.63;0.63;;;;;;;10.99;79.53;99231.59;4948920;28;20554;-68
2024/01/04 07:22:12;;;;;;;0.70;0.70;;;;;;;10.96;78.90;99235.25;4933190;29;20027;-68
2024/01/04 07:24:38;;;;;;;0.63;0.63;;;;;;;11.03;78.63;99250.00;4947229;29;20074;-68
2024/01/04 07:27:05;;;;;;;0.70;0.70;;;;;;;11.06;78.18;99259.63;4945322;28;20063;-68
2024/01/04 07:29:31;;;;;;;0.70;0.70;;;;;;;11.02;78.80;99260.72;4933466;29;20086;-69
2024/01/04 07:31:57;;;;;;;0.70;0.70;;;;;;;11.03;78.79;99259.78;4945972;29;20418;-68
2024/01/04 07:34:22;;;;;;;0.70;0.70;;;;;;;10.92;78.75;99259.41;4941817;29;20715;-68
2024/01/04 07:36:48;;;;;;;0.70;0.70;;;;;;;11.00;78.91;99254.59;4947170;29;20830;-69
2024/01/04 07:39:14;;;;;;;0.70;0.70;;;;;;;10.88;79.29;99239.19;4948833;29;20027;-68
2024/01/04 07:41:41;;;;;;;0.70;0.70;;;;;;;11.01;79.88;99262.50;4947564;29;20117;-68
2024/01/04 07:44:07;;;;;;;0.70;0.70;;;;;;;10.98;80.24;99265.31;4949083;29;20027;-69
2024/01/04 07:46:33;;;;;;;0.65;0.65;;;;;;;10.94;79.90;99265.53;4947598;29;20039;-68
2024/01/04 07:48:58;;;;;;;0.68;0.68;;;;;;;10.91;80.92;99268.31;4932221;28;20587;-68
2024/01/04 07:51:24;;;;;;;0.70;0.70;;;;;;;10.91;80.64;99273.63;4947588;29;20059;-69
2024/01/04 07:53:50;;;;;;;0.70;0.70;;;;;;;10.48;81.38;99218.88;4932617;29;20035;-68
2024/01/04 07:56:15;;;;;;;0.70;0.70;;;;;;;10.89;81.43;99275.53;4956689;28;20055;-68
2024/01/04 07:58:40;;;;;;;0.80;0.80;;;;;;;10.95;81.78;99272.56;4965007;28;20035;-68
2024/01/04 08:01:07;;;;;;;0.70;0.70;;;;;;;11.00;81.37;99283.88;4968549;28;20117;-69
2024/01/04 08:03:32;;;;;;;0.80;0.80;;;;;;;10.58;81.18;99229.03;4965451;28;20129;-69
2024/01/04 08:05:58;;;;;;;0.70;0.70;;;;;;;11.00;82.17;99287.41;4977846;28;20113;-69
2024/01/04 08:08:26;;;;;;;0.80;0.80;;;;;;;11.06;82.43;99286.25;4966633;28;20793;-68
2024/01/04 08:10:52;;;;;;;0.70;0.70;;;;;;;10.98;83.68;99296.38;4973924;28;20031;-69
2024/01/04 08:13:18;;;;;;;0.70;0.70;;;;;;;10.70;82.96;99266.63;4960820;28;20023;-68
2024/01/04 08:15:43;;;;;;;0.70;0.70;;;;;;;10.92;84.48;99302.00;4957614;28;20038;-69
2024/01/04 08:18:08;;;;;;;0.70;0.70;;;;;;;10.90;84.92;99293.22;4967277;28;20054;-69
2024/01/04 08:20:34;;;;;;;0.80;0.80;;;;;;;11.00;85.04;99294.50;4966643;28;20037;-69
2024/01/04 08:23:00;;;;;;;0.80;0.80;;;;;;;10.94;84.17;99292.16;4967724;28;20066;-69
2024/01/04 08:25:25;;;;;;;0.77;0.77;;;;;;;10.94;83.33;99305.44;4949409;28;20145;-68
2024/01/04 08:27:51;;;;;;;0.63;0.63;;;;;;;10.94;82.27;99300.13;4970245;28;20557;-68
2024/01/04 08:30:16;;;;;;;0.70;0.70;;;;;;;11.06;82.09;99307.53;4988255;28;20035;-69
2024/01/04 08:32:41;;;;;;;0.70;0.70;;;;;;;11.02;80.93;99309.47;4972972;28;20054;-69
2024/01/04 08:35:07;;;;;;;0.70;0.70;;;;;;;11.05;81.85;99314.69;4968852;28;20031;-67
2024/01/04 08:37:33;;;;;;;0.80;0.80;;;;;;;11.07;81.62;99325.25;4951027;28;20031;-68
2024/01/04 08:39:58;;;;;;;0.70;0.70;;;;;;;11.10;81.60;99328.63;4964676;28;20026;-69
2024/01/04 08:42:23;;;;;;;0.70;0.70;;;;;;;11.16;81.87;99332.78;4968864;28;20034;-69
2024/01/04 08:44:49;;;;;;;0.70;0.70;;;;;;;11.18;81.42;99338.91;4948495;28;20034;-69
2024/01/04 08:47:14;;;;;;;0.75;0.75;;;;;;;10.95;81.36;99313.34;4969479;28;20030;-69
2024/01/04 08:49:40;;;;;;;0.70;0.70;;;;;;;11.15;81.60;99357.69;4970564;28;20509;-68
2024/01/04 08:52:06;;;;;;;0.70;0.70;;;;;;;11.10;84.60;99351.72;4967248;28;20664;-67
2024/01/04 08:54:31;;;;;;;0.68;0.68;;;;;;;11.07;85.93;99350.03;4969128;28;20049;-66
2024/01/04 08:56:57;;;;;;;0.70;0.70;;;;;;;11.08;87.01;99350.91;4984725;28;20050;-68
2024/01/04 08:59:22;;;;;;;0.70;0.70;;;;;;;11.06;87.37;99353.66;4968613;28;20068;-69
2024/01/04 09:01:48;;;;;;;0.70;0.70;;;;;;;11.05;88.08;99346.59;4953950;28;20487;-68
2024/01/04 09:04:13;;;;;;;0.70;0.70;;;;;;;11.00;89.03;99345.94;4968146;28;20062;-68
2024/01/04 09:06:39;;;;;;;0.70;0.70;;;;;;;10.66;89.11;99283.69;4967085;28;20491;-68
2024/01/04 09:09:07;;;;;;;0.70;0.70;;;;;;;10.94;89.81;99340.03;4966278;28;20051;-68
2024/01/04 09:11:38;;;;;;;0.73;0.73;;;;;;;10.91;89.45;99354.31;4957232;28;20035;-68
2024/01/04 09:14:07;;;;;;;0.70;0.70;;;;;;;10.84;91.44;99360.84;4968937;28;20050;-68
2024/01/04 09:16:35;;;;;;;0.60;0.60;;;;;;;10.71;93.40;99359.66;4968819;28;20111;-68
2024/01/04 09:19:01;;;;;;;0.60;0.60;;;;;;;10.53;95.47;99368.41;4966157;28;20034;-67
2024/01/04 09:21:27;;;;;;;0.70;0.70;;;;;;;10.40;96.86;99389.34;4969820;28;20030;-68
2024/01/04 09:23:52;;;;;;;0.70;0.70;;;;;;;10.42;98.10;99382.19;4965571;28;20027;-68
2024/01/04 09:26:18;;;;;;;0.80;0.80;;;;;;;10.39;98.99;99382.28;4968021;28;20365;-69
2024/01/04 09:28:44;;;;;;;0.80;0.80;;;;;;;10.34;99.69;99386.09;4968938;28;20069;-68
2024/01/04 09:31:09;;;;;;;0.80;0.80;;;;;;;10.22;99.92;99395.44;4954183;28;20037;-69
2024/01/04 09:33:35;;;;;;;0.70;0.70;;;;;;;10.13;100.00;99381.66;4948312;29;20085;-68
2024/01/04 09:36:00;;;;;;;0.70;0.70;;;;;;;10.07;100.00;99401.34;4951348;28;20540;-68
2024/01/04 09:38:27;;;;;;;0.70;0.70;;;;;;;10.02;100.00;99408.63;4949506;29;20035;-68
2024/01/04 09:41:00;;;;;;;0.70;0.70;;;;;;;9.95;100.00;99415.09;4931604;29;20479;-69
2024/01/04 09:43:30;;;;;;;0.70;0.70;;;;;;;9.85;100.00;99416.38;4952615;28;20082;-69
2024/01/04 09:46:00;;;;;;;0.70;0.70;;;;;;;9.82;100.00;99415.66;4950307;28;20027;-69
2024/01/04 09:48:30;;;;;;;0.80;0.80;;;;;;;9.87;100.00;99419.84;4951004;28;20049;-69
2024/01/04 09:50:55;;;;;;;0.70;0.70;;;;;;;9.52;100.00;99356.66;4963717;28;20030;-70
2024/01/04 09:53:21;;;;;;;0.80;0.80;;;;;;;10.00;100.00;99409.63;4964395;28;20762;-68
2024/01/04 09:55:48;;;;;;;0.63;0.63;;;;;;;10.30;100.00;99403.09;4963459;28;20113;-69
2024/01/04 09:58:13;;;;;;;0.80;0.80;;;;;;;10.64;100.00;99406.09;4969120;28;20085;-69
2024/01/04 10:00:39;;;;;;;0.70;0.70;;;;;;;10.76;100.00;99402.03;4968125;28;20027;-68
2024/01/04 10:03:05;;;;;;;0.70;0.70;;;;;;;10.74;100.00;99398.56;4965586;28;20676;-69
2024/01/04 10:05:33;;;;;;;0.75;0.75;;;;;;;10.66;100.00;99412.19;4967797;28;20086;-66
2024/01/04 10:08:15;;;;;;;0.70;0.70;;;;;;;10.53;100.00;99410.97;4968865;28;20443;-69
2024/01/04 10:10:43;;;;;;;0.60;0.60;;;;;;;10.49;100.00;99426.19;4968918;28;20038;-69
2024/01/04 10:13:10;;;;;;;0.80;0.80;;;;;;;10.43;100.00;99425.56;4968791;28;20083;-70
2024/01/04 10:15:38;;;;;;;0.80;0.80;;;;;;;10.48;100.00;99429.78;4969450;28;20113;-69
2024/01/04 10:18:07;;;;;;;0.70;0.70;;;;;;;10.43;100.00;99430.88;4942686;29;20042;-69
2024/01/04 10:20:33;;;;;;;0.70;0.70;;;;;;;10.40;100.00;99421.25;4981046;28;20636;-71
2024/01/04 10:22:58;;;;;;;0.80;0.80;;;;;;;10.35;100.00;99428.56;4976628;28;20038;-70
2024/01/04 10:25:24;;;;;;;0.70;0.70;;;;;;;10.09;100.00;99420.78;4965935;28;20022;-68
2024/01/04 10:27:56;;;;;;;0.70;0.70;;;;;;;10.10;100.00;99437.56;4967717;28;20049;-70
2024/01/04 10:30:22;;;;;;;0.70;0.70;;;;;;;10.10;100.00;99430.47;4963585;28;20038;-70
2024/01/04 10:32:50;;;;;;;0.70;0.70;;;;;;;10.10;100.00;99422.50;4955054;28;20023;-70
2024/01/04 10:35:26;;;;;;;0.70;0.70;;;;;;;10.04;100.00;99417.41;4964586;28;20054;-70
2024/01/04 10:37:59;;;;;;;0.80;0.80;;;;;;;10.10;100.00;99417.19;4982513;28;20135;-73
2024/01/04 10:40:25;;;;;;;0.80;0.80;;;;;;;10.19;100.00;99415.97;4992008;28;20196;-73
2024/01/04 10:42:55;;;;;;;0.60;0.60;;;;;;;10.15;100.00;99359.41;4975777;28;20031;-70
2024/01/04 10:45:29;;;;;;;0.70;0.70;;;;;;;11.08;100.00;99423.66;4972214;28;20049;-70
2024/01/04 10:47:56;;;;;;;0.70;0.70;;;;;;;11.12;100.00;99390.63;4968653;28;20031;-71
2024/01/04 10:50:24;;;;;;;0.80;0.80;;;;;;;11.37;100.00;99412.53;4970775;28;20479;-71
2024/01/04 10:52:53;;;;;;;0.60;0.60;;;;;;;11.65;100.00;99412.16;4966973;28;20058;-71
2024/01/04 10:55:20;;;;;;;0.70;0.70;;;;;;;11.21;97.64;99352.09;4969375;28;20101;-72
2024/01/04 10:57:47;;;;;;;0.75;0.75;;;;;;;11.32;96.97;99429.66;4967641;28;20081;-71
2024/01/04 11:00:13;;;;;;;0.70;0.70;;;;;;;11.29;97.70;99424.47;4969828;28;20759;-71
2024/01/04 11:02:40;;;;;;;0.70;0.70;;;;;;;11.27;97.70;99415.69;4971834;28;20019;-71
2024/01/04 11:05:09;;;;;;;0.60;0.60;;;;;;;11.04;98.67;99370.59;4978683;28;20030;-72
2024/01/04 11:07:39;;;;;;;0.70;0.70;;;;;;;11.39;98.81;99415.13;4973463;28;20090;-71
2024/01/04 11:10:06;;;;;;;0.68;0.68;;;;;;;11.40;100.00;99411.56;4961276;28;20495;-71
2024/01/04 11:12:33;;;;;;;0.70;0.70;;;;;;;11.50;100.00;99410.19;4971055;28;20117;-70
2024/01/04 11:14:59;;;;;;;0.60;0.60;;;;;;;11.96;100.00;99411.63;4966589;28;20057;-70
2024/01/04 11:17:42;;;;;;;0.60;0.60;;;;;;;12.19;96.99;99414.03;4951944;28;20031;-69
2024/01/04 11:20:23;;;;;;;0.60;0.60;;;;;;;12.02;94.54;99385.53;4969968;28;20030;-70
2024/01/04 11:23:08;;;;;;;0.70;0.70;;;;;;;12.17;93.54;99411.44;4971686;28;20481;-70
2024/01/04 11:26:07;;;;;;;0.55;0.55;;;;;;;12.04;92.32;99399.66;4964706;28;20027;-69
2024/01/04 11:28:33;;;;;;;0.50;0.50;;;;;;;12.03;91.90;99402.34;4971319;28;20398;-69